sensor_id;sensor_type;location;lat;lon;timestamp;pressure;altitude;pressure_sealevel;temperature;humidity
22481;BME280;11407;56.964;-2.212;2022-10-04T00:01:56;100673.88;;;24.88;46.37
22481;BME280;11407;56.964;-2.212;2022-10-04T00:04:25;100673.91;;;24.68;46.33
22481;BME280;11407;56.964;-2.212;2022-10-04T00:09:46;100663.75;;;24.70;46.92
22481;BME280;11407;56.964;-2.212;2022-10-04T00:12:23;100666.03;;;24.61;47.23
22481;BME280;11407;56.964;-2.212;2022-10-04T00:14:52;100656.69;;;24.63;47.34
22481;BME280;11407;56.964;-2.212;2022-10-04T00:17:27;100639.63;;;24.88;46.23
22481;BME280;11407;56.964;-2.212;2022-10-04T00:19:54;100635.72;;;24.91;46.26
22481;BME280;11407;56.964;-2.212;2022-10-04T00:22:30;100632.19;;;24.77;47.01
22481;BME280;11407;56.964;-2.212;2022-10-04T00:25:16;100613.50;;;24.89;46.47
22481;BME280;11407;56.964;-2.212;2022-10-04T00:28:14;100602.75;;;24.82;46.82
22481;BME280;11407;56.964;-2.212;2022-10-04T00:30:40;100584.47;;;24.91;46.34
22481;BME280;11407;56.964;-2.212;2022-10-04T00:33:06;100582.19;;;24.81;46.72
22481;BME280;11407;56.964;-2.212;2022-10-04T00:38:11;100568.72;;;24.81;46.92
22481;BME280;11407;56.964;-2.212;2022-10-04T00:43:16;100567.81;;;25.00;46.48
22481;BME280;11407;56.964;-2.212;2022-10-04T00:45:48;100574.09;;;24.94;46.74
22481;BME280;11407;56.964;-2.212;2022-10-04T00:51:11;100586.50;;;25.02;46.47
22481;BME280;11407;56.964;-2.212;2022-10-04T00:56:46;100567.44;;;24.97;47.15
22481;BME280;11407;56.964;-2.212;2022-10-04T00:59:37;100555.34;;;25.06;46.43
22481;BME280;11407;56.964;-2.212;2022-10-04T01:02:19;100565.25;;;24.68;47.39
22481;BME280;11407;56.964;-2.212;2022-10-04T01:05:05;100567.03;;;24.87;47.08
22481;BME280;11407;56.964;-2.212;2022-10-04T01:07:32;100540.50;;;24.84;46.75
22481;BME280;11407;56.964;-2.212;2022-10-04T01:10:30;100530.94;;;24.88;46.65
22481;BME280;11407;56.964;-2.212;2022-10-04T01:13:16;100523.91;;;24.87;47.26
22481;BME280;11407;56.964;-2.212;2022-10-04T01:15:59;100530.19;;;24.68;47.70
22481;BME280;11407;56.964;-2.212;2022-10-04T01:18:31;100521.81;;;24.89;47.26
22481;BME280;11407;56.964;-2.212;2022-10-04T01:21:03;100526.00;;;24.72;47.85
22481;BME280;11407;56.964;-2.212;2022-10-04T01:26:04;100502.75;;;24.84;47.69
22481;BME280;11407;56.964;-2.212;2022-10-04T01:28:31;100484.72;;;24.78;47.69
22481;BME280;11407;56.964;-2.212;2022-10-04T01:30:58;100489.78;;;24.55;47.55
22481;BME280;11407;56.964;-2.212;2022-10-04T01:33:24;100479.81;;;24.56;47.91
22481;BME280;11407;56.964;-2.212;2022-10-04T01:35:49;100467.56;;;24.66;47.96
22481;BME280;11407;56.964;-2.212;2022-10-04T01:38:15;100474.19;;;24.70;47.44
22481;BME280;11407;56.964;-2.212;2022-10-04T01:40:47;100457.09;;;24.89;47.01
22481;BME280;11407;56.964;-2.212;2022-10-04T01:43:24;100454.59;;;24.94;46.84
22481;BME280;11407;56.964;-2.212;2022-10-04T01:48:36;100442.16;;;24.93;47.00
22481;BME280;11407;56.964;-2.212;2022-10-04T01:51:32;100423.88;;;24.88;47.07
22481;BME280;11407;56.964;-2.212;2022-10-04T01:54:24;100435.94;;;24.86;47.31
22481;BME280;11407;56.964;-2.212;2022-10-04T01:57:04;100436.16;;;24.84;47.15
22481;BME280;11407;56.964;-2.212;2022-10-04T02:04:55;100416.09;;;24.74;47.39
22481;BME280;11407;56.964;-2.212;2022-10-04T02:07:22;100416.06;;;24.80;47.23
22481;BME280;11407;56.964;-2.212;2022-10-04T02:09:54;100396.69;;;24.96;46.99
22481;BME280;11407;56.964;-2.212;2022-10-04T02:12:21;100395.47;;;24.92;47.13
22481;BME280;11407;56.964;-2.212;2022-10-04T02:14:49;100400.53;;;24.76;47.66
22481;BME280;11407;56.964;-2.212;2022-10-04T02:17:20;100384.94;;;24.84;47.63
22481;BME280;11407;56.964;-2.212;2022-10-04T02:19:47;100377.69;;;24.78;47.66
22481;BME280;11407;56.964;-2.212;2022-10-04T02:22:13;100357.66;;;24.99;47.01
22481;BME280;11407;56.964;-2.212;2022-10-04T02:24:45;100346.13;;;24.85;47.31
22481;BME280;11407;56.964;-2.212;2022-10-04T02:27:12;100350.25;;;24.57;48.04
22481;BME280;11407;56.964;-2.212;2022-10-04T02:29:37;100337.59;;;24.88;47.15
22481;BME280;11407;56.964;-2.212;2022-10-04T02:32:05;100319.34;;;24.90;47.66
22481;BME280;11407;56.964;-2.212;2022-10-04T02:34:49;100340.09;;;24.90;47.47
22481;BME280;11407;56.964;-2.212;2022-10-04T02:37:16;100334.13;;;24.81;47.58
22481;BME280;11407;56.964;-2.212;2022-10-04T02:40:02;100324.88;;;25.02;47.36
22481;BME280;11407;56.964;-2.212;2022-10-04T02:42:45;100332.69;;;25.10;47.47
22481;BME280;11407;56.964;-2.212;2022-10-04T02:47:57;100334.38;;;25.04;46.87
22481;BME280;11407;56.964;-2.212;2022-10-04T02:50:30;100333.72;;;25.09;47.18
22481;BME280;11407;56.964;-2.212;2022-10-04T02:55:36;100343.31;;;25.05;47.25
22481;BME280;11407;56.964;-2.212;2022-10-04T02:58:08;100344.78;;;25.32;46.57
22481;BME280;11407;56.964;-2.212;2022-10-04T03:00:45;100339.28;;;25.20;46.90
22481;BME280;11407;56.964;-2.212;2022-10-04T03:03:28;100333.94;;;25.14;47.46
22481;BME280;11407;56.964;-2.212;2022-10-04T03:11:09;100310.47;;;25.14;47.34
22481;BME280;11407;56.964;-2.212;2022-10-04T03:13:38;100301.22;;;25.28;46.45
22481;BME280;11407;56.964;-2.212;2022-10-04T03:16:05;100290.72;;;25.62;45.86
22481;BME280;11407;56.964;-2.212;2022-10-04T03:18:32;100290.09;;;25.18;47.10
22481;BME280;11407;56.964;-2.212;2022-10-04T03:21:05;100271.22;;;25.18;46.73
22481;BME280;11407;56.964;-2.212;2022-10-04T03:23:32;100283.56;;;25.01;46.86
22481;BME280;11407;56.964;-2.212;2022-10-04T03:28:27;100289.13;;;25.13;47.29
22481;BME280;11407;56.964;-2.212;2022-10-04T03:30:53;100288.06;;;25.14;47.37
22481;BME280;11407;56.964;-2.212;2022-10-04T03:33:22;100280.13;;;25.43;46.21
22481;BME280;11407;56.964;-2.212;2022-10-04T03:35:51;100276.69;;;25.30;46.81
22481;BME280;11407;56.964;-2.212;2022-10-04T03:38:18;100267.69;;;25.18;46.32
22481;BME280;11407;56.964;-2.212;2022-10-04T03:40:56;100275.78;;;25.18;46.51
22481;BME280;11407;56.964;-2.212;2022-10-04T03:43:28;100281.00;;;25.37;46.21
22481;BME280;11407;56.964;-2.212;2022-10-04T03:45:59;100288.84;;;25.45;46.29
22481;BME280;11407;56.964;-2.212;2022-10-04T03:48:51;100300.72;;;25.13;46.98
22481;BME280;11407;56.964;-2.212;2022-10-04T03:51:25;100293.88;;;25.11;47.14
22481;BME280;11407;56.964;-2.212;2022-10-04T03:53:59;100299.69;;;25.14;47.12
22481;BME280;11407;56.964;-2.212;2022-10-04T03:56:31;100291.78;;;25.37;46.46
22481;BME280;11407;56.964;-2.212;2022-10-04T03:58:58;100290.88;;;25.25;46.67
22481;BME280;11407;56.964;-2.212;2022-10-04T04:07:00;100284.25;;;25.46;46.71
22481;BME280;11407;56.964;-2.212;2022-10-04T04:09:47;100282.97;;;25.48;46.07
22481;BME280;11407;56.964;-2.212;2022-10-04T04:15:07;100263.69;;;25.45;46.70
22481;BME280;11407;56.964;-2.212;2022-10-04T04:17:39;100251.72;;;25.58;46.41
22481;BME280;11407;56.964;-2.212;2022-10-04T04:20:15;100255.22;;;25.59;46.12
22481;BME280;11407;56.964;-2.212;2022-10-04T04:22:44;100255.09;;;25.72;45.98
22481;BME280;11407;56.964;-2.212;2022-10-04T04:25:14;100247.75;;;25.61;46.40
22481;BME280;11407;56.964;-2.212;2022-10-04T04:27:42;100258.72;;;25.84;45.75
22481;BME280;11407;56.964;-2.212;2022-10-04T04:30:15;100265.22;;;26.12;45.13
22481;BME280;11407;56.964;-2.212;2022-10-04T04:32:47;100242.13;;;26.16;45.61
22481;BME280;11407;56.964;-2.212;2022-10-04T04:35:22;100225.75;;;25.75;45.60
22481;BME280;11407;56.964;-2.212;2022-10-04T04:38:03;100233.13;;;25.68;46.32
22481;BME280;11407;56.964;-2.212;2022-10-04T04:40:28;100240.09;;;25.76;46.51
22481;BME280;11407;56.964;-2.212;2022-10-04T04:42:57;100232.16;;;25.63;46.42
22481;BME280;11407;56.964;-2.212;2022-10-04T04:45:26;100232.44;;;25.73;46.59
22481;BME280;11407;56.964;-2.212;2022-10-04T04:47:56;100219.19;;;25.71;46.39
22481;BME280;11407;56.964;-2.212;2022-10-04T04:51:11;100233.97;;;25.69;46.74
22481;BME280;11407;56.964;-2.212;2022-10-04T04:53:16;100233.16;;;25.86;45.82
22481;BME280;11407;56.964;-2.212;2022-10-04T04:55:49;100232.19;;;26.28;45.36
22481;BME280;11407;56.964;-2.212;2022-10-04T04:58:21;100215.41;;;26.38;45.09
22481;BME280;11407;56.964;-2.212;2022-10-04T05:01:05;100215.44;;;26.20;45.27
22481;BME280;11407;56.964;-2.212;2022-10-04T05:03:33;100224.63;;;26.19;45.36
22481;BME280;11407;56.964;-2.212;2022-10-04T05:05:59;100226.78;;;26.28;44.85
22481;BME280;11407;56.964;-2.212;2022-10-04T05:08:32;100226.97;;;26.45;45.00
22481;BME280;11407;56.964;-2.212;2022-10-04T05:16:25;100225.06;;;26.16;45.60
22481;BME280;11407;56.964;-2.212;2022-10-04T05:18:57;100227.19;;;26.14;45.44
22481;BME280;11407;56.964;-2.212;2022-10-04T05:21:27;100224.88;;;26.29;45.19
22481;BME280;11407;56.964;-2.212;2022-10-04T05:24:05;100219.78;;;26.39;44.97
22481;BME280;11407;56.964;-2.212;2022-10-04T05:26:32;100220.97;;;26.43;45.06
22481;BME280;11407;56.964;-2.212;2022-10-04T05:29:06;100221.03;;;26.07;46.01
22481;BME280;11407;56.964;-2.212;2022-10-04T05:34:30;100196.94;;;26.35;45.58
22481;BME280;11407;56.964;-2.212;2022-10-04T05:37:21;100193.41;;;26.05;45.78
22481;BME280;11407;56.964;-2.212;2022-10-04T05:42:44;100193.03;;;26.19;45.57
22481;BME280;11407;56.964;-2.212;2022-10-04T05:45:27;100190.72;;;26.05;45.32
22481;BME280;11407;56.964;-2.212;2022-10-04T05:47:59;100193.50;;;25.98;46.22
22481;BME280;11407;56.964;-2.212;2022-10-04T05:50:34;100185.38;;;26.16;45.75
22481;BME280;11407;56.964;-2.212;2022-10-04T05:53:28;100210.88;;;26.20;45.63
22481;BME280;11407;56.964;-2.212;2022-10-04T05:58:53;100206.72;;;26.06;45.20
22481;BME280;11407;56.964;-2.212;2022-10-04T06:04:20;100211.59;;;25.98;45.91
22481;BME280;11407;56.964;-2.212;2022-10-04T06:07:41;100208.09;;;25.97;46.06
22481;BME280;11407;56.964;-2.212;2022-10-04T06:10:32;100201.31;;;26.06;46.39
22481;BME280;11407;56.964;-2.212;2022-10-04T06:13:26;100205.56;;;26.14;46.33
22481;BME280;11407;56.964;-2.212;2022-10-04T06:16:55;100200.28;;;26.19;46.04
22481;BME280;11407;56.964;-2.212;2022-10-04T06:19:11;100202.66;;;26.45;45.85
22481;BME280;11407;56.964;-2.212;2022-10-04T06:24:14;100215.47;;;26.49;45.56
22481;BME280;11407;56.964;-2.212;2022-10-04T06:26:43;100210.38;;;26.70;44.95
22481;BME280;11407;56.964;-2.212;2022-10-04T06:29:18;100199.78;;;26.80;45.01
22481;BME280;11407;56.964;-2.212;2022-10-04T06:37:41;100198.38;;;26.78;44.42
22481;BME280;11407;56.964;-2.212;2022-10-04T06:43:18;100224.94;;;26.81;44.40
22481;BME280;11407;56.964;-2.212;2022-10-04T06:46:05;100207.19;;;26.73;44.76
22481;BME280;11407;56.964;-2.212;2022-10-04T06:48:40;100203.09;;;26.82;44.45
22481;BME280;11407;56.964;-2.212;2022-10-04T07:05:41;100190.50;;;26.88;44.80
22481;BME280;11407;56.964;-2.212;2022-10-04T07:08:19;100179.19;;;26.91;44.32
22481;BME280;11407;56.964;-2.212;2022-10-04T07:11:13;100168.38;;;26.91;44.61
22481;BME280;11407;56.964;-2.212;2022-10-04T07:14:02;100176.25;;;26.81;44.49
22481;BME280;11407;56.964;-2.212;2022-10-04T07:27:14;100179.06;;;26.74;45.24
22481;BME280;11407;56.964;-2.212;2022-10-04T07:29:42;100169.34;;;26.73;45.38
22481;BME280;11407;56.964;-2.212;2022-10-04T07:34:48;100163.81;;;26.39;46.35
22481;BME280;11407;56.964;-2.212;2022-10-04T07:37:17;100166.97;;;26.25;46.23
22481;BME280;11407;56.964;-2.212;2022-10-04T07:42:47;100171.13;;;26.39;46.31
22481;BME280;11407;56.964;-2.212;2022-10-04T07:45:29;100169.84;;;26.41;46.01
22481;BME280;11407;56.964;-2.212;2022-10-04T07:48:18;100160.41;;;26.32;45.97
22481;BME280;11407;56.964;-2.212;2022-10-04T07:56:33;100169.31;;;26.33;46.04
22481;BME280;11407;56.964;-2.212;2022-10-04T08:10:39;100180.69;;;26.52;46.04
22481;BME280;11407;56.964;-2.212;2022-10-04T08:15:41;100169.41;;;26.44;46.14
22481;BME280;11407;56.964;-2.212;2022-10-04T08:21:07;100161.41;;;26.49;45.94
22481;BME280;11407;56.964;-2.212;2022-10-04T08:24:06;100180.31;;;26.20;47.13
22481;BME280;11407;56.964;-2.212;2022-10-04T08:26:56;100174.81;;;26.26;47.24
22481;BME280;11407;56.964;-2.212;2022-10-04T08:57:37;100134.78;;;26.35;47.91
22481;BME280;11407;56.964;-2.212;2022-10-04T09:00:07;100137.53;;;26.46;47.88
22481;BME280;11407;56.964;-2.212;2022-10-04T09:26:44;100128.50;;;26.98;46.75
22481;BME280;11407;56.964;-2.212;2022-10-04T09:45:41;100049.16;;;26.69;47.46
22481;BME280;11407;56.964;-2.212;2022-10-04T10:39:43;100127.63;;;27.94;47.44
22481;BME280;11407;56.964;-2.212;2022-10-04T10:47:37;100115.09;;;27.76;47.49
22481;BME280;11407;56.964;-2.212;2022-10-04T10:58:13;100112.09;;;27.50;47.77
22481;BME280;11407;56.964;-2.212;2022-10-04T11:50:54;100097.00;;;27.93;47.62
22481;BME280;11407;56.964;-2.212;2022-10-04T12:04:46;100085.75;;;28.62;46.36
22481;BME280;11407;56.964;-2.212;2022-10-04T12:13:07;100103.41;;;28.81;46.60
22481;BME280;11407;56.964;-2.212;2022-10-04T12:16:14;100100.69;;;28.97;45.87
22481;BME280;11407;56.964;-2.212;2022-10-04T12:30:20;100124.97;;;28.87;45.85
22481;BME280;11407;56.964;-2.212;2022-10-04T12:52:14;100139.72;;;28.31;46.58
22481;BME280;11407;56.964;-2.212;2022-10-04T12:54:43;100127.19;;;28.41;46.26
22481;BME280;11407;56.964;-2.212;2022-10-04T13:08:20;100094.44;;;28.31;46.73
22481;BME280;11407;56.964;-2.212;2022-10-04T13:20:11;100079.00;;;28.32;46.46
22481;BME280;11407;56.964;-2.212;2022-10-04T13:28:05;100101.25;;;28.17;46.38
22481;BME280;11407;56.964;-2.212;2022-10-04T13:30:48;100104.47;;;28.03;46.97
22481;BME280;11407;56.964;-2.212;2022-10-04T13:36:12;100119.34;;;28.00;46.18
22481;BME280;11407;56.964;-2.212;2022-10-04T14:03:43;100141.16;;;27.54;45.60
22481;BME280;11407;56.964;-2.212;2022-10-04T14:14:39;100173.25;;;27.35;46.21
22481;BME280;11407;56.964;-2.212;2022-10-04T14:25:44;100179.25;;;27.02;46.11
22481;BME280;11407;56.964;-2.212;2022-10-04T14:28:13;100185.72;;;27.13;45.71
22481;BME280;11407;56.964;-2.212;2022-10-04T14:34:11;100202.19;;;27.11;45.35
22481;BME280;11407;56.964;-2.212;2022-10-04T14:36:47;100188.63;;;26.88;45.98
22481;BME280;11407;56.964;-2.212;2022-10-04T14:44:55;100195.91;;;26.88;44.42
22481;BME280;11407;56.964;-2.212;2022-10-04T14:53:19;100215.97;;;26.69;45.18
22481;BME280;11407;56.964;-2.212;2022-10-04T15:01:32;100234.81;;;26.64;45.69
22481;BME280;11407;56.964;-2.212;2022-10-04T15:04:20;100237.31;;;26.77;44.30
22481;BME280;11407;56.964;-2.212;2022-10-04T15:06:58;100233.59;;;26.60;45.11
22481;BME280;11407;56.964;-2.212;2022-10-04T15:09:48;100245.97;;;26.56;44.25
22481;BME280;11407;56.964;-2.212;2022-10-04T15:23:29;100245.97;;;26.56;44.57
22481;BME280;11407;56.964;-2.212;2022-10-04T15:26:01;100243.25;;;26.56;45.13
22481;BME280;11407;56.964;-2.212;2022-10-04T15:35:14;100258.63;;;26.55;44.76
22481;BME280;11407;56.964;-2.212;2022-10-04T15:38:13;100252.09;;;26.63;44.94
22481;BME280;11407;56.964;-2.212;2022-10-04T15:49:13;100277.59;;;26.38;44.17
22481;BME280;11407;56.964;-2.212;2022-10-04T16:05:32;100298.25;;;26.14;43.48
22481;BME280;11407;56.964;-2.212;2022-10-04T16:08:26;100296.59;;;26.13;44.33
22481;BME280;11407;56.964;-2.212;2022-10-04T16:18:56;100322.28;;;25.86;44.42
22481;BME280;11407;56.964;-2.212;2022-10-04T16:21:52;100319.00;;;25.84;43.33
22481;BME280;11407;56.964;-2.212;2022-10-04T16:32:42;100304.00;;;25.64;43.95
22481;BME280;11407;56.964;-2.212;2022-10-04T16:40:55;100319.22;;;25.58;43.83
22481;BME280;11407;56.964;-2.212;2022-10-04T16:43:27;100320.75;;;25.48;44.42
22481;BME280;11407;56.964;-2.212;2022-10-04T16:54:02;100334.03;;;25.25;44.01
22481;BME280;11407;56.964;-2.212;2022-10-04T17:04:50;100347.88;;;25.04;44.36
22481;BME280;11407;56.964;-2.212;2022-10-04T17:07:40;100349.78;;;24.60;44.82
22481;BME280;11407;56.964;-2.212;2022-10-04T17:18:30;100353.16;;;24.43;44.84
22481;BME280;11407;56.964;-2.212;2022-10-04T17:21:08;100352.03;;;24.19;44.37
22481;BME280;11407;56.964;-2.212;2022-10-04T17:37:16;100345.50;;;23.57;44.00
22481;BME280;11407;56.964;-2.212;2022-10-04T17:42:35;100360.22;;;23.42;44.27
22481;BME280;11407;56.964;-2.212;2022-10-04T17:48:07;100349.84;;;23.13;44.12
22481;BME280;11407;56.964;-2.212;2022-10-04T17:51:13;100351.25;;;22.89;44.40
22481;BME280;11407;56.964;-2.212;2022-10-04T17:54:15;100355.34;;;22.79;44.35
22481;BME280;11407;56.964;-2.212;2022-10-04T17:59:38;100382.28;;;22.39;44.98
22481;BME280;11407;56.964;-2.212;2022-10-04T18:02:33;100373.75;;;22.29;45.01
22481;BME280;11407;56.964;-2.212;2022-10-04T18:05:28;100377.47;;;21.94;46.10
22481;BME280;11407;56.964;-2.212;2022-10-04T18:07:56;100380.81;;;21.69;46.13
22481;BME280;11407;56.964;-2.212;2022-10-04T18:10:37;100389.16;;;21.80;45.89
22481;BME280;11407;56.964;-2.212;2022-10-04T18:18:49;100396.53;;;21.51;45.72
22481;BME280;11407;56.964;-2.212;2022-10-04T18:21:29;100401.66;;;21.46;46.00
22481;BME280;11407;56.964;-2.212;2022-10-04T18:24:19;100400.44;;;21.48;45.83
22481;BME280;11407;56.964;-2.212;2022-10-04T18:37:47;100399.38;;;21.22;46.51
22481;BME280;11407;56.964;-2.212;2022-10-04T18:40:17;100409.78;;;20.61;48.20
22481;BME280;11407;56.964;-2.212;2022-10-04T18:42:57;100402.38;;;20.63;48.09
22481;BME280;11407;56.964;-2.212;2022-10-04T18:47:51;100410.09;;;21.22;46.72
22481;BME280;11407;56.964;-2.212;2022-10-04T18:50:38;100418.56;;;21.25;46.82
22481;BME280;11407;56.964;-2.212;2022-10-04T18:53:39;100421.75;;;21.35;46.35
22481;BME280;11407;56.964;-2.212;2022-10-04T18:56:08;100413.66;;;21.29;46.46
22481;BME280;11407;56.964;-2.212;2022-10-04T19:01:51;100420.81;;;21.43;46.14
22481;BME280;11407;56.964;-2.212;2022-10-04T19:06:53;100404.22;;;21.81;45.45
22481;BME280;11407;56.964;-2.212;2022-10-04T19:11:59;100401.09;;;21.78;45.70
22481;BME280;11407;56.964;-2.212;2022-10-04T19:14:36;100399.78;;;21.67;45.64
22481;BME280;11407;56.964;-2.212;2022-10-04T19:27:51;100405.47;;;20.95;47.54
22481;BME280;11407;56.964;-2.212;2022-10-04T19:50:05;100387.16;;;20.78;47.87
22481;BME280;11407;56.964;-2.212;2022-10-04T19:52:42;100373.28;;;20.74;47.55
22481;BME280;11407;56.964;-2.212;2022-10-04T20:00:43;100387.16;;;20.63;47.79
22481;BME280;11407;56.964;-2.212;2022-10-04T20:03:10;100381.88;;;20.70;48.20
22481;BME280;11407;56.964;-2.212;2022-10-04T20:05:42;100376.97;;;20.73;47.85
22481;BME280;11407;56.964;-2.212;2022-10-04T20:08:11;100371.25;;;20.76;47.52
22481;BME280;11407;56.964;-2.212;2022-10-04T20:10:37;100369.34;;;20.91;47.26
22481;BME280;11407;56.964;-2.212;2022-10-04T20:18:00;100359.47;;;20.92;47.33
22481;BME280;11407;56.964;-2.212;2022-10-04T20:23:08;100354.50;;;20.89;47.23
22481;BME280;11407;56.964;-2.212;2022-10-04T20:30:59;100353.94;;;21.41;46.28
22481;BME280;11407;56.964;-2.212;2022-10-04T20:36:09;100363.09;;;21.53;46.05
22481;BME280;11407;56.964;-2.212;2022-10-04T20:38:57;100361.78;;;21.64;45.66
22481;BME280;11407;56.964;-2.212;2022-10-04T20:43:59;100381.06;;;21.53;46.47
22481;BME280;11407;56.964;-2.212;2022-10-04T20:46:34;100384.13;;;21.50;46.25
22481;BME280;11407;56.964;-2.212;2022-10-04T20:49:03;100376.03;;;21.43;46.25
22481;BME280;11407;56.964;-2.212;2022-10-04T20:51:30;100367.22;;;21.49;46.28
22481;BME280;11407;56.964;-2.212;2022-10-04T20:53:59;100366.50;;;21.13;46.71
22481;BME280;11407;56.964;-2.212;2022-10-04T20:56:28;100364.69;;;21.62;46.09
22481;BME280;11407;56.964;-2.212;2022-10-04T20:59:02;100356.41;;;21.15;46.63
22481;BME280;11407;56.964;-2.212;2022-10-04T21:04:22;100358.13;;;21.23;46.77
22481;BME280;11407;56.964;-2.212;2022-10-04T21:07:10;100346.81;;;21.06;47.28
22481;BME280;11407;56.964;-2.212;2022-10-04T21:09:40;100335.00;;;21.43;46.23
22481;BME280;11407;56.964;-2.212;2022-10-04T21:17:41;100329.44;;;20.96;47.63
22481;BME280;11407;56.964;-2.212;2022-10-04T21:23:33;100314.56;;;20.93;47.88
22481;BME280;11407;56.964;-2.212;2022-10-04T21:26:21;100291.81;;;21.10;47.45
22481;BME280;11407;56.964;-2.212;2022-10-04T21:28:52;100290.44;;;21.14;47.21
22481;BME280;11407;56.964;-2.212;2022-10-04T21:31:17;100302.75;;;21.09;47.59
22481;BME280;11407;56.964;-2.212;2022-10-04T21:33:43;100306.13;;;20.96;47.98
22481;BME280;11407;56.964;-2.212;2022-10-04T21:36:08;100304.88;;;20.92;47.96
22481;BME280;11407;56.964;-2.212;2022-10-04T21:38:34;100301.94;;;20.88;48.09
22481;BME280;11407;56.964;-2.212;2022-10-04T21:41:00;100297.59;;;20.87;48.24
22481;BME280;11407;56.964;-2.212;2022-10-04T21:43:25;100286.72;;;20.74;48.73
22481;BME280;11407;56.964;-2.212;2022-10-04T21:45:51;100285.34;;;20.98;48.06
22481;BME280;11407;56.964;-2.212;2022-10-04T21:48:16;100281.06;;;21.31;47.35
22481;BME280;11407;56.964;-2.212;2022-10-04T21:50:42;100280.63;;;21.28;47.23
22481;BME280;11407;56.964;-2.212;2022-10-04T21:53:08;100283.31;;;21.28;47.21
22481;BME280;11407;56.964;-2.212;2022-10-04T21:55:33;100271.28;;;21.17;47.40
22481;BME280;11407;56.964;-2.212;2022-10-04T21:57:59;100253.53;;;21.16;47.86
22481;BME280;11407;56.964;-2.212;2022-10-04T22:00:24;100245.78;;;21.00;47.84
22481;BME280;11407;56.964;-2.212;2022-10-04T22:02:50;100231.88;;;21.52;46.94
22481;BME280;11407;56.964;-2.212;2022-10-04T22:05:15;100239.00;;;21.04;48.10
22481;BME280;11407;56.964;-2.212;2022-10-04T22:07:41;100222.13;;;21.10;47.95
22481;BME280;11407;56.964;-2.212;2022-10-04T22:10:07;100225.28;;;21.20;47.69
22481;BME280;11407;56.964;-2.212;2022-10-04T22:12:32;100228.03;;;21.27;47.50
22481;BME280;11407;56.964;-2.212;2022-10-04T22:14:58;100212.78;;;21.61;46.58
22481;BME280;11407;56.964;-2.212;2022-10-04T22:17:23;100202.13;;;21.74;46.34
22481;BME280;11407;56.964;-2.212;2022-10-04T22:19:48;100204.63;;;21.82;46.18
22481;BME280;11407;56.964;-2.212;2022-10-04T22:22:15;100194.97;;;21.94;46.05
22481;BME280;11407;56.964;-2.212;2022-10-04T22:24:41;100171.00;;;21.86;46.22
22481;BME280;11407;56.964;-2.212;2022-10-04T22:27:18;100186.66;;;21.83;46.64
22481;BME280;11407;56.964;-2.212;2022-10-04T22:29:44;100181.25;;;21.63;47.08
22481;BME280;11407;56.964;-2.212;2022-10-04T22:32:15;100176.59;;;21.51;47.75
22481;BME280;11407;56.964;-2.212;2022-10-04T22:34:42;100184.56;;;21.72;47.31
22481;BME280;11407;56.964;-2.212;2022-10-04T22:37:09;100179.69;;;22.01;46.87
22481;BME280;11407;56.964;-2.212;2022-10-04T22:39:36;100177.03;;;22.07;46.58
22481;BME280;11407;56.964;-2.212;2022-10-04T22:42:01;100165.63;;;21.86;47.15
22481;BME280;11407;56.964;-2.212;2022-10-04T22:44:34;100171.09;;;21.65;47.74
22481;BME280;11407;56.964;-2.212;2022-10-04T22:47:01;100162.16;;;22.05;46.83
22481;BME280;11407;56.964;-2.212;2022-10-04T22:49:33;100154.56;;;22.21;46.85
22481;BME280;11407;56.964;-2.212;2022-10-04T22:52:01;100158.53;;;22.32;46.61
22481;BME280;11407;56.964;-2.212;2022-10-04T22:54:30;100143.81;;;22.28;46.88
22481;BME280;11407;56.964;-2.212;2022-10-04T22:56:57;100147.75;;;22.25;46.75
22481;BME280;11407;56.964;-2.212;2022-10-04T22:59:29;100134.78;;;22.55;46.55
22481;BME280;11407;56.964;-2.212;2022-10-04T23:01:58;100138.09;;;22.57;46.56
22481;BME280;11407;56.964;-2.212;2022-10-04T23:04:24;100130.22;;;22.62;46.33
22481;BME280;11407;56.964;-2.212;2022-10-04T23:06:51;100126.72;;;22.42;46.93
22481;BME280;11407;56.964;-2.212;2022-10-04T23:09:17;100118.03;;;22.46;46.88
22481;BME280;11407;56.964;-2.212;2022-10-04T23:11:43;100119.47;;;22.36;46.94
22481;BME280;11407;56.964;-2.212;2022-10-04T23:14:09;100104.38;;;22.74;46.50
22481;BME280;11407;56.964;-2.212;2022-10-04T23:16:35;100101.91;;;22.72;46.34
22481;BME280;11407;56.964;-2.212;2022-10-04T23:19:09;100098.41;;;22.46;47.07
22481;BME280;11407;56.964;-2.212;2022-10-04T23:21:37;100099.44;;;22.25;47.83
22481;BME280;11407;56.964;-2.212;2022-10-04T23:24:18;100102.34;;;22.37;47.66
22481;BME280;11407;56.964;-2.212;2022-10-04T23:26:52;100090.16;;;22.34;47.90
22481;BME280;11407;56.964;-2.212;2022-10-04T23:31:49;100071.97;;;22.36;47.75
22481;BME280;11407;56.964;-2.212;2022-10-04T23:34:26;100059.78;;;22.40;47.77
22481;BME280;11407;56.964;-2.212;2022-10-04T23:36:53;100054.22;;;22.35;47.85
22481;BME280;11407;56.964;-2.212;2022-10-04T23:39:25;100051.72;;;22.40;48.00
22481;BME280;11407;56.964;-2.212;2022-10-04T23:41:52;100045.50;;;22.59;47.42
22481;BME280;11407;56.964;-2.212;2022-10-04T23:44:19;100039.94;;;22.41;48.17
22481;BME280;11407;56.964;-2.212;2022-10-04T23:46:46;100033.75;;;22.47;47.81
22481;BME280;11407;56.964;-2.212;2022-10-04T23:49:15;100033.75;;;22.54;47.38
22481;BME280;11407;56.964;-2.212;2022-10-04T23:51:43;100028.38;;;22.21;48.60
22481;BME280;11407;56.964;-2.212;2022-10-04T23:54:14;100022.59;;;22.24;48.77
22481;BME280;11407;56.964;-2.212;2022-10-04T23:56:40;100017.78;;;22.59;48.01
22481;BME280;11407;56.964;-2.212;2022-10-04T23:59:14;99993.44;;;22.60;47.94
